createdAt,value
2022-11-01T00:01:30.893Z,17.57
2022-11-01T00:03:58.352Z,17.63
2022-11-01T00:06:25.558Z,17.76
2022-11-01T00:08:52.659Z,17.43
2022-11-01T00:11:20.007Z,17.83
2022-11-01T00:13:47.631Z,17.09
2022-11-01T00:16:14.959Z,17.38
2022-11-01T00:18:42.332Z,17.05
2022-11-01T00:21:09.592Z,15.99
2022-11-01T00:23:37.217Z,17.14
2022-11-01T00:26:04.629Z,16.46
2022-11-01T00:28:31.977Z,17.36
2022-11-01T00:30:59.291Z,17.38
2022-11-01T00:33:26.665Z,17.29
2022-11-01T00:35:53.775Z,17.18
2022-11-01T00:38:20.897Z,17.16
2022-11-01T00:40:48.311Z,15.81
2022-11-01T00:43:16.102Z,16.47
2022-11-01T00:45:44.133Z,16.63
2022-11-01T00:48:12.184Z,16.95
2022-11-01T00:50:39.685Z,17.24
2022-11-01T00:53:07.129Z,17.77
2022-11-01T00:55:34.499Z,16.74
2022-11-01T00:58:02.272Z,16.57
2022-11-01T01:00:29.653Z,16.36
2022-11-01T01:02:57.084Z,17.06
2022-11-01T01:05:24.312Z,16.35
2022-11-01T01:07:51.446Z,15.88
2022-11-01T01:10:18.828Z,15.98
2022-11-01T01:12:45.926Z,16.98
2022-11-01T01:15:13.026Z,16.29
2022-11-01T01:17:40.452Z,16.63
2022-11-01T01:20:07.837Z,16.45
2022-11-01T01:22:34.944Z,16.19
2022-11-01T01:25:02.331Z,16.45
2022-11-01T01:27:29.432Z,16.11
2022-11-01T01:29:56.816Z,16.43
2022-11-01T01:32:24.379Z,17.16
2022-11-01T01:34:51.497Z,17.16
2022-11-01T01:37:20.201Z,17.01
2022-11-01T01:39:47.613Z,16.45
2022-11-01T01:42:27.100Z,16.66
2022-11-01T01:44:54.444Z,15.80
2022-11-01T01:47:22.430Z,16.24
2022-11-01T01:49:49.871Z,15.92
2022-11-01T01:52:17.292Z,16.22
2022-11-01T01:54:44.394Z,16.26
2022-11-01T01:57:11.552Z,16.25
2022-11-01T01:59:38.952Z,15.61
2022-11-01T02:02:06.400Z,16.32
2022-11-01T02:04:35.936Z,16.12
2022-11-01T02:07:03.237Z,16.15
2022-11-01T02:09:31.710Z,15.73
2022-11-01T02:11:59.253Z,15.97
2022-11-01T02:14:26.356Z,15.90
2022-11-01T02:17:19.715Z,15.70
2022-11-01T02:19:56.143Z,15.91
2022-11-01T02:22:41.847Z,16.02
2022-11-01T02:25:28.210Z,16.03
2022-11-01T02:28:05.721Z,15.85
2022-11-01T02:30:43.886Z,15.95
2022-11-01T02:33:29.286Z,15.89
2022-11-01T02:36:04.674Z,16.53
2022-11-01T02:38:36.479Z,16.19
2022-11-01T02:41:08.428Z,15.77
2022-11-01T02:43:52.793Z,15.26
2022-11-01T02:46:39.463Z,16.52
2022-11-01T02:49:07.069Z,15.45
2022-11-01T02:51:34.452Z,14.50
2022-11-01T02:54:08.400Z,15.28
2022-11-01T02:56:35.808Z,15.70
2022-11-01T02:59:02.958Z,15.73
2022-11-01T03:01:30.307Z,16.19
2022-11-01T03:03:57.731Z,16.82
2022-11-01T03:06:27.878Z,16.67
2022-11-01T03:08:57.651Z,16.83
2022-11-01T03:11:48.234Z,16.03
2022-11-01T03:14:24.464Z,15.66
2022-11-01T03:17:07.223Z,15.67
2022-11-01T03:19:46.400Z,15.64
2022-11-01T03:22:22.930Z,15.84
2022-11-01T03:24:49.999Z,16.15
2022-11-01T03:27:19.870Z,15.79
2022-11-01T03:29:48.536Z,16.04
2022-11-01T03:32:15.893Z,16.67
2022-11-01T03:34:43.252Z,17.09
2022-11-01T03:37:11.370Z,16.92
2022-11-01T03:39:42.657Z,15.35
2022-11-01T03:42:12.038Z,16.36
2022-11-01T03:44:41.188Z,16.16
2022-11-01T03:47:08.312Z,15.36
2022-11-01T03:49:35.691Z,14.96
2022-11-01T03:52:02.799Z,15.72
2022-11-01T03:54:29.925Z,16.16
2022-11-01T03:56:57.345Z,15.82
2022-11-01T03:59:24.623Z,15.44
2022-11-01T04:01:51.859Z,16.53
2022-11-01T04:04:19.342Z,16.30
2022-11-01T04:06:46.438Z,16.19
2022-11-01T04:09:13.536Z,16.10
2022-11-01T04:11:40.977Z,15.73
2022-11-01T04:14:26.613Z,15.98
2022-11-01T04:17:12.655Z,15.72
2022-11-01T04:19:58.546Z,16.21
2022-11-01T04:22:25.918Z,16.32
2022-11-01T04:24:53.023Z,15.76
2022-11-01T04:27:20.135Z,16.72
2022-11-01T04:29:47.501Z,17.19
2022-11-01T04:32:14.620Z,16.69
2022-11-01T04:34:44.562Z,16.33
2022-11-01T04:37:12.064Z,15.62
2022-11-01T04:39:39.201Z,16.22
2022-11-01T04:42:06.353Z,15.70
2022-11-01T04:44:33.852Z,15.37
2022-11-01T04:47:00.969Z,16.38
2022-11-01T04:49:28.087Z,16.04
2022-11-01T04:51:55.447Z,16.41
2022-11-01T04:54:22.568Z,15.55
2022-11-01T04:56:49.677Z,15.72
2022-11-01T04:59:17.036Z,16.58
2022-11-01T05:01:45.257Z,16.23
2022-11-01T05:04:12.484Z,14.84
2022-11-01T05:06:39.857Z,16.13
2022-11-01T05:09:06.959Z,15.59
2022-11-01T05:11:34.058Z,16.37
2022-11-01T05:14:01.420Z,16.33
2022-11-01T05:16:28.550Z,15.97
2022-11-01T05:18:57.854Z,15.80
2022-11-01T05:21:25.222Z,15.77
2022-11-01T05:23:52.329Z,16.16
2022-11-01T05:26:19.441Z,15.90
2022-11-01T05:28:46.816Z,16.74
2022-11-01T05:31:13.921Z,17.02
2022-11-01T05:33:41.031Z,17.03
2022-11-01T05:36:08.421Z,16.23
2022-11-01T05:38:35.550Z,16.57
2022-11-01T05:41:03.481Z,15.93
2022-11-01T05:43:30.917Z,16.53
2022-11-01T05:45:57.995Z,15.90
2022-11-01T05:48:25.128Z,15.84
2022-11-01T05:50:52.504Z,16.68
2022-11-01T05:53:19.602Z,16.34
2022-11-01T05:55:46.728Z,15.56
2022-11-01T05:58:14.109Z,15.39
2022-11-01T06:00:41.241Z,15.56
2022-11-01T06:03:08.621Z,15.13
2022-11-01T06:05:37.752Z,15.99
2022-11-01T06:08:04.998Z,15.58
2022-11-01T06:10:32.699Z,15.12
2022-11-01T06:13:00.082Z,15.93
2022-11-01T06:15:27.352Z,16.16
2022-11-01T06:17:58.934Z,15.97
2022-11-01T06:20:26.584Z,16.69
2022-11-01T06:22:53.684Z,16.83
2022-11-01T06:25:21.134Z,16.80
2022-11-01T06:27:49.294Z,16.45
2022-11-01T06:30:16.618Z,16.51
2022-11-01T06:32:44.028Z,16.84
2022-11-01T06:35:11.891Z,16.52
2022-11-01T06:37:39.369Z,16.97
2022-11-01T06:40:06.957Z,16.68
2022-11-01T06:42:34.108Z,15.86
2022-11-01T06:45:01.230Z,15.56
2022-11-01T06:47:28.708Z,16.59
2022-11-01T06:49:55.884Z,17.00
2022-11-01T06:52:23.040Z,16.53
2022-11-01T06:54:50.437Z,16.70
2022-11-01T06:57:17.536Z,15.92
2022-11-01T06:59:44.657Z,14.75
2022-11-01T07:02:14.495Z,15.81
2022-11-01T07:04:42.151Z,16.46
2022-11-01T07:07:09.240Z,15.89
2022-11-01T07:09:36.744Z,15.79
2022-11-01T07:12:03.983Z,15.92
2022-11-01T07:14:31.185Z,16.45
2022-11-01T07:16:58.566Z,16.05
2022-11-01T07:19:25.694Z,16.44
2022-11-01T07:21:52.778Z,16.09
2022-11-01T07:24:20.188Z,15.28
2022-11-01T07:26:47.577Z,16.45
2022-11-01T07:29:15.179Z,15.87
2022-11-01T07:31:42.590Z,16.31
2022-11-01T07:34:09.721Z,16.80
2022-11-01T07:36:36.886Z,16.60
2022-11-01T07:39:04.253Z,16.69
2022-11-01T07:41:31.382Z,15.20
2022-11-01T07:43:58.469Z,15.49
2022-11-01T07:46:25.836Z,16.60
2022-11-01T07:48:52.961Z,15.22
2022-11-01T07:51:20.123Z,15.61
2022-11-01T07:53:47.742Z,16.80
2022-11-01T07:56:15.040Z,17.12
2022-11-01T07:58:43.590Z,16.69
2022-11-01T08:01:11.433Z,16.59
2022-11-01T08:03:38.920Z,15.62
2022-11-01T08:06:06.088Z,15.33
2022-11-01T08:08:33.258Z,15.54
2022-11-01T08:11:01.498Z,16.40
2022-11-01T08:13:28.722Z,15.51
2022-11-01T08:15:55.871Z,16.47
2022-11-01T08:18:24.308Z,15.17
2022-11-01T08:20:51.500Z,16.15
2022-11-01T08:23:18.697Z,15.25
2022-11-01T08:25:46.103Z,15.48
2022-11-01T08:28:17.512Z,16.56
2022-11-01T08:30:45.354Z,15.22
2022-11-01T08:33:12.799Z,16.19
2022-11-01T08:35:39.969Z,16.46
2022-11-01T08:38:07.081Z,15.28
2022-11-01T08:40:34.503Z,15.68
2022-11-01T08:43:01.889Z,15.71
2022-11-01T08:45:29.554Z,15.32
2022-11-01T08:47:58.269Z,15.40
2022-11-01T08:50:25.420Z,15.84
2022-11-01T08:52:52.537Z,14.90
2022-11-01T08:55:19.933Z,14.68
2022-11-01T08:57:47.101Z,14.59
2022-11-01T09:00:14.499Z,15.01
2022-11-01T09:02:41.897Z,14.25
2022-11-01T09:05:09.217Z,15.37
2022-11-01T09:07:36.657Z,15.22
2022-11-01T09:10:04.368Z,16.77
2022-11-01T09:12:31.543Z,16.38
2022-11-01T09:14:58.844Z,15.83
2022-11-01T09:17:26.221Z,15.60
2022-11-01T09:19:53.327Z,16.41
2022-11-01T09:22:20.430Z,16.45
2022-11-01T09:24:47.826Z,16.11
2022-11-01T09:27:14.926Z,15.63
2022-11-01T09:29:44.216Z,16.18
2022-11-01T09:32:14.003Z,15.96
2022-11-01T09:34:41.125Z,16.02
2022-11-01T09:37:08.238Z,15.64
2022-11-01T09:39:35.637Z,15.50
2022-11-01T09:42:03.704Z,14.52
2022-11-01T09:44:34.859Z,15.62
2022-11-01T09:47:04.108Z,15.33
2022-11-01T09:49:33.450Z,15.21
2022-11-01T09:52:00.603Z,15.78
2022-11-01T09:54:28.096Z,15.51
2022-11-01T09:57:07.502Z,15.91
2022-11-01T09:59:47.378Z,15.72
2022-11-01T10:02:31.793Z,16.30
2022-11-01T10:05:05.851Z,16.18
2022-11-01T10:07:35.675Z,16.73
2022-11-01T10:10:22.024Z,16.69
2022-11-01T10:13:07.840Z,16.46
2022-11-01T10:15:52.709Z,16.18
2022-11-01T10:18:30.148Z,16.47
2022-11-01T10:21:05.161Z,16.46
2022-11-01T10:23:48.704Z,15.52
2022-11-01T10:26:25.987Z,16.34
2022-11-01T10:28:59.861Z,15.94
2022-11-01T10:31:27.632Z,15.33
2022-11-01T10:34:02.565Z,15.59
2022-11-01T10:36:33.666Z,15.88
2022-11-01T10:41:49.374Z,15.92
2022-11-01T10:44:38.379Z,15.86
2022-11-01T10:47:07.172Z,16.38
2022-11-01T10:50:00.525Z,14.96
2022-11-01T10:52:27.302Z,15.74
2022-11-01T10:54:54.458Z,15.63
2022-11-01T10:57:40.247Z,15.17
2022-11-01T11:00:11.879Z,15.81
2022-11-01T11:02:40.254Z,15.71
2022-11-01T11:05:07.738Z,16.39
2022-11-01T11:07:34.863Z,16.36
2022-11-01T11:12:34.748Z,15.50
2022-11-01T11:15:03.942Z,15.92
2022-11-01T11:17:43.537Z,15.90
2022-11-01T11:20:11.539Z,16.79
2022-11-01T11:22:40.119Z,15.02
2022-11-01T11:25:12.968Z,15.25
2022-11-01T11:27:41.366Z,15.51
2022-11-01T11:30:08.793Z,15.65
2022-11-01T11:32:38.827Z,16.33
2022-11-01T11:35:19.684Z,16.74
2022-11-01T11:38:01.442Z,17.10
2022-11-01T11:40:30.201Z,16.78
2022-11-01T11:43:17.345Z,17.10
2022-11-01T11:45:44.808Z,17.34
2022-11-01T11:48:16.020Z,17.21
2022-11-01T11:50:43.279Z,17.31
2022-11-01T11:53:19.049Z,17.20
2022-11-01T11:55:46.180Z,16.21
2022-11-01T11:58:16.326Z,16.88
2022-11-01T12:00:43.848Z,17.04
2022-11-01T12:03:12.870Z,17.06
2022-11-01T12:05:49.946Z,17.24
2022-11-01T12:08:24.164Z,16.95
2022-11-01T12:10:56.101Z,16.88
2022-11-01T12:13:25.549Z,17.35
2022-11-01T12:16:11.511Z,16.97
2022-11-01T12:18:55.623Z,17.62
2022-11-01T12:21:26.956Z,17.65
2022-11-01T12:24:01.565Z,18.02
2022-11-01T12:26:29.234Z,18.19
2022-11-01T12:29:05.566Z,17.36
2022-11-01T12:31:32.843Z,17.87
2022-11-01T12:34:03.536Z,17.83
2022-11-01T12:36:31.744Z,17.75
2022-11-01T12:39:04.443Z,17.80
2022-11-01T12:41:35.637Z,17.65
2022-11-01T12:44:21.590Z,18.35
2022-11-01T12:46:50.568Z,17.74
2022-11-01T12:49:27.101Z,18.04
2022-11-01T12:51:55.472Z,18.61
2022-11-01T12:54:31.884Z,18.62
2022-11-01T12:56:59.252Z,18.15
2022-11-01T12:59:33.162Z,18.90
2022-11-01T13:02:04.861Z,18.96
2022-11-01T13:04:36.196Z,17.87
2022-11-01T13:07:05.950Z,17.65
2022-11-01T13:09:43.396Z,16.67
2022-11-01T13:12:13.809Z,17.96
2022-11-01T13:14:50.013Z,17.76
2022-11-01T13:17:38.504Z,17.48
2022-11-01T13:20:24.871Z,18.33
2022-11-01T13:22:58.449Z,18.04
2022-11-01T13:25:34.776Z,18.65
2022-11-01T13:28:05.409Z,18.75
2022-11-01T13:30:32.902Z,19.05
2022-11-01T13:33:05.855Z,19.24
2022-11-01T13:35:40.175Z,19.37
2022-11-01T13:38:26.523Z,19.36
2022-11-01T13:40:57.165Z,19.43
2022-11-01T13:43:25.068Z,19.34
2022-11-01T13:46:10.980Z,19.79
2022-11-01T13:48:41.325Z,20.08
2022-11-01T13:51:14.716Z,18.94
2022-11-01T13:53:44.668Z,19.23
2022-11-01T13:56:20.189Z,19.51
2022-11-01T13:58:47.560Z,19.67
2022-11-01T14:01:30.330Z,19.81
2022-11-01T14:04:16.190Z,18.98
2022-11-01T14:06:43.712Z,19.54
2022-11-01T14:09:26.315Z,19.73
2022-11-01T14:11:56.570Z,19.91
2022-11-01T14:14:29.934Z,20.23
2022-11-01T14:17:15.856Z,20.22
2022-11-01T14:19:43.717Z,20.24
2022-11-01T14:22:24.125Z,19.71
2022-11-01T14:24:54.462Z,20.30
2022-11-01T14:27:23.263Z,20.45
2022-11-01T14:29:50.973Z,20.46
2022-11-01T14:32:19.012Z,20.14
2022-11-01T14:34:47.457Z,20.42
2022-11-01T14:37:19.233Z,20.54
2022-11-01T14:39:49.331Z,20.30
2022-11-01T14:42:19.210Z,20.37
2022-11-01T14:44:49.740Z,20.81
2022-11-01T14:47:38.351Z,20.63
2022-11-01T14:50:12.717Z,20.87
2022-11-01T14:52:41.510Z,20.82
2022-11-01T14:55:32.466Z,20.57
2022-11-01T14:58:12.931Z,20.85
2022-11-01T15:00:40.710Z,20.46
2022-11-01T15:03:08.495Z,20.48
2022-11-01T15:05:43.559Z,20.56
2022-11-01T15:08:24.690Z,20.72
2022-11-01T15:10:52.863Z,20.80
2022-11-01T15:13:20.274Z,20.92
2022-11-01T15:16:16.797Z,20.49
2022-11-01T15:18:48.399Z,19.96
2022-11-01T15:23:50.535Z,19.74
2022-11-01T15:26:19.133Z,19.95
2022-11-01T15:28:50.607Z,19.92
2022-11-01T15:31:18.501Z,20.49
2022-11-01T15:33:52.564Z,20.29
2022-11-01T15:36:22.340Z,19.68
2022-11-01T15:38:53.584Z,20.05
2022-11-01T15:41:21.128Z,20.00
2022-11-01T15:43:52.276Z,19.51
2022-11-01T15:46:19.670Z,20.17
2022-11-01T15:48:47.072Z,20.07
2022-11-01T15:51:17.804Z,20.47
2022-11-01T15:53:45.308Z,20.45
2022-11-01T15:56:18.159Z,20.57
2022-11-01T15:58:45.445Z,20.37
2022-11-01T16:01:14.662Z,20.07
2022-11-01T16:03:45.796Z,20.32
2022-11-01T16:06:16.212Z,20.02
2022-11-01T16:08:46.942Z,20.15
2022-11-01T16:11:21.021Z,20.03
2022-11-01T16:13:49.643Z,19.84
2022-11-01T16:16:17.794Z,20.08
2022-11-01T16:18:45.740Z,20.28
2022-11-01T16:21:19.269Z,20.24
2022-11-01T16:23:55.491Z,20.27
2022-11-01T16:26:22.864Z,20.35
2022-11-01T16:28:51.813Z,20.13
2022-11-01T16:31:29.041Z,20.43
2022-11-01T16:33:57.047Z,20.77
2022-11-01T16:36:24.404Z,20.79
2022-11-01T16:38:52.302Z,20.93
2022-11-01T16:41:20.707Z,20.94
2022-11-01T16:43:54.811Z,20.65
2022-11-01T16:46:22.511Z,20.77
2022-11-01T16:48:59.873Z,20.93
2022-11-01T16:51:28.757Z,20.72
2022-11-01T16:53:56.537Z,20.70
2022-11-01T16:56:40.749Z,20.60
2022-11-01T16:59:16.152Z,20.83
2022-11-01T17:01:46.219Z,20.57
2022-11-01T17:04:13.711Z,20.72
2022-11-01T17:06:41.008Z,20.66
2022-11-01T17:09:14.677Z,20.92
2022-11-01T17:11:46.581Z,21.02
2022-11-01T17:14:18.551Z,20.79
2022-11-01T17:16:47.671Z,20.31
2022-11-01T17:19:23.358Z,20.55
2022-11-01T17:21:51.866Z,20.54
2022-11-01T17:24:20.221Z,20.71
2022-11-01T17:26:48.165Z,20.76
2022-11-01T17:29:17.115Z,20.57
2022-11-01T17:31:45.190Z,20.90
2022-11-01T17:34:13.534Z,20.32
2022-11-01T17:36:41.664Z,20.46
2022-11-01T17:39:09.723Z,20.46
2022-11-01T17:41:36.930Z,20.40
2022-11-01T17:44:04.692Z,20.64
2022-11-01T17:46:32.426Z,20.63
2022-11-01T17:49:00.684Z,20.57
2022-11-01T17:51:28.236Z,20.76
2022-11-01T17:53:56.232Z,20.61
2022-11-01T17:56:24.371Z,20.53
2022-11-01T17:58:53.915Z,19.81
2022-11-01T18:01:21.636Z,19.79
2022-11-01T18:03:50.171Z,20.39
2022-11-01T18:06:17.555Z,20.43
2022-11-01T18:08:48.446Z,20.45
2022-11-01T18:11:30.040Z,20.27
2022-11-01T18:14:03.406Z,20.03
2022-11-01T18:16:40.892Z,19.96
2022-11-01T18:19:29.828Z,20.16
2022-11-01T18:22:05.250Z,20.38
2022-11-01T18:24:40.594Z,20.31
2022-11-01T18:27:09.577Z,20.23
2022-11-01T18:29:40.254Z,20.44
2022-11-01T18:32:16.792Z,20.12
2022-11-01T18:34:46.494Z,20.22
2022-11-01T18:37:17.778Z,19.88
2022-11-01T18:39:44.997Z,20.17
2022-11-01T18:42:12.420Z,20.17
2022-11-01T18:44:40.323Z,19.91
2022-11-01T18:47:12.368Z,19.98
2022-11-01T18:49:39.987Z,20.05
2022-11-01T18:52:16.273Z,19.99
2022-11-01T18:54:48.403Z,20.07
2022-11-01T18:57:17.982Z,19.59
2022-11-01T18:59:53.205Z,19.71
2022-11-01T19:02:23.016Z,19.41
2022-11-01T19:04:52.590Z,19.56
2022-11-01T19:07:20.860Z,19.57
2022-11-01T19:09:56.039Z,18.80
2022-11-01T19:12:28.423Z,18.74
2022-11-01T19:15:03.229Z,19.05
2022-11-01T19:17:36.161Z,19.10
2022-11-01T19:20:05.322Z,18.02
2022-11-01T19:22:35.998Z,17.97
2022-11-01T19:25:03.798Z,17.96
2022-11-01T19:27:31.406Z,18.03
2022-11-01T19:30:00.181Z,18.47
2022-11-01T19:32:29.060Z,17.58
2022-11-01T19:34:56.721Z,17.77
2022-11-01T19:37:26.130Z,18.51
2022-11-01T19:39:53.867Z,18.67
2022-11-01T19:42:35.403Z,18.56
2022-11-01T19:45:12.488Z,18.94
2022-11-01T19:47:40.069Z,18.18
2022-11-01T19:50:15.223Z,18.06
2022-11-01T19:52:47.075Z,18.22
2022-11-01T19:55:25.341Z,18.44
2022-11-01T19:57:53.120Z,17.44
2022-11-01T20:00:21.840Z,17.83
2022-11-01T20:02:50.842Z,17.44
2022-11-01T20:05:29.367Z,17.24
2022-11-01T20:08:03.427Z,16.70
2022-11-01T20:10:33.851Z,16.61
2022-11-01T20:13:02.629Z,16.26
2022-11-01T20:15:30.246Z,16.46
2022-11-01T20:17:57.995Z,16.67
2022-11-01T20:20:26.605Z,16.92
2022-11-01T20:23:06.189Z,16.66
2022-11-01T20:25:41.046Z,16.71
2022-11-01T20:28:09.170Z,15.89
2022-11-01T20:30:36.942Z,15.49
2022-11-01T20:33:05.215Z,15.24
2022-11-01T20:35:33.608Z,15.96
2022-11-01T20:38:00.954Z,16.65
2022-11-01T20:40:32.631Z,16.77
2022-11-01T20:43:00.590Z,15.65
2022-11-01T20:45:28.250Z,15.60
2022-11-01T20:47:56.647Z,15.73
2022-11-01T20:50:24.268Z,14.90
2022-11-01T20:52:51.973Z,14.68
2022-11-01T20:55:19.592Z,14.94
2022-11-01T20:57:47.071Z,14.91
2022-11-01T21:00:15.813Z,14.36
2022-11-01T21:02:43.533Z,15.20
2022-11-01T21:05:21.455Z,15.33
2022-11-01T21:07:49.315Z,15.64
2022-11-01T21:10:30.943Z,15.39
2022-11-01T21:13:00.485Z,15.33
2022-11-01T21:15:28.818Z,14.86
2022-11-01T21:17:57.677Z,16.06
2022-11-01T21:20:25.082Z,16.56
2022-11-01T21:22:53.853Z,14.97
2022-11-01T21:25:21.986Z,16.09
2022-11-01T21:27:50.241Z,15.87
2022-11-01T21:30:18.938Z,15.86
2022-11-01T21:32:46.462Z,15.83
2022-11-01T21:35:19.885Z,14.96
2022-11-01T21:37:50.583Z,15.19
2022-11-01T21:40:23.115Z,15.91
2022-11-01T21:42:50.591Z,15.18
2022-11-01T21:45:30.859Z,15.79
2022-11-01T21:48:00.281Z,15.35
2022-11-01T21:50:28.305Z,15.26
2022-11-01T21:52:55.501Z,15.44
2022-11-01T21:55:22.627Z,15.90
2022-11-01T21:57:50.166Z,15.23
2022-11-01T22:00:17.338Z,15.08
2022-11-01T22:02:44.805Z,16.66
2022-11-01T22:05:11.954Z,15.61
2022-11-01T22:07:39.076Z,16.33
2022-11-01T22:10:06.924Z,16.49
2022-11-01T22:12:34.041Z,15.86
2022-11-01T22:15:01.171Z,15.06
2022-11-01T22:17:28.530Z,15.68
2022-11-01T22:19:55.631Z,15.55
2022-11-01T22:22:22.780Z,15.60
2022-11-01T22:24:50.303Z,15.33
2022-11-01T22:27:17.458Z,14.73
2022-11-01T22:29:44.564Z,14.96
2022-11-01T22:32:12.110Z,15.43
2022-11-01T22:34:39.340Z,15.01
2022-11-01T22:37:09.519Z,15.34
2022-11-01T22:39:36.913Z,15.42
2022-11-01T22:42:06.188Z,15.34
2022-11-01T22:44:33.341Z,14.96
2022-11-01T22:47:01.361Z,15.39
2022-11-01T22:49:28.462Z,15.75
2022-11-01T22:52:15.718Z,15.29
2022-11-01T22:54:43.582Z,15.56
2022-11-01T22:57:15.285Z,15.19
2022-11-01T22:59:44.952Z,16.12
2022-11-01T23:02:18.155Z,16.38
2022-11-01T23:04:45.823Z,16.71
2022-11-01T23:07:20.596Z,16.20
2022-11-01T23:09:48.028Z,16.62
2022-11-01T23:12:38.037Z,16.96
2022-11-01T23:15:05.633Z,17.27
2022-11-01T23:17:33.191Z,16.88
2022-11-01T23:20:00.613Z,16.63
2022-11-01T23:22:34.337Z,16.70
2022-11-01T23:25:01.485Z,17.15
2022-11-01T23:27:29.416Z,16.78
2022-11-01T23:29:57.336Z,17.61
2022-11-01T23:32:24.457Z,17.38
2022-11-01T23:34:53.274Z,17.08
2022-11-01T23:37:20.384Z,17.32
2022-11-01T23:39:47.620Z,18.29
2022-11-01T23:42:16.877Z,17.97
2022-11-01T23:44:44.166Z,18.33
2022-11-01T23:47:15.637Z,17.27
2022-11-01T23:49:43.100Z,17.11
2022-11-01T23:52:20.301Z,17.77
2022-11-01T23:54:47.693Z,18.14
2022-11-01T23:57:17.793Z,17.30
2022-11-01T23:59:44.919Z,18.10
